createdAt,value
2019-03-21T00:00:03.243Z,1.09
2019-03-21T00:10:03.035Z,1.05
2019-03-21T00:20:03.674Z,0.85
2019-03-21T00:30:02.861Z,0.90
2019-03-21T00:40:02.712Z,0.69
2019-03-21T00:50:02.428Z,0.68
2019-03-21T01:00:03.546Z,0.56
2019-03-21T01:10:02.688Z,0.30
2019-03-21T01:20:02.672Z,0.15
2019-03-21T01:30:02.926Z,0.15
2019-03-21T01:40:02.545Z,-0.19
2019-03-21T01:50:02.457Z,-0.47
2019-03-21T02:00:03.381Z,-0.43
2019-03-21T02:10:02.391Z,-0.63
2019-03-21T02:20:02.571Z,-0.73
2019-03-21T02:30:02.774Z,-1.07
2019-03-21T02:40:03.244Z,-1.06
2019-03-21T02:50:02.937Z,-0.73
2019-03-21T03:00:03.134Z,-0.74
2019-03-21T03:10:02.730Z,-0.68
2019-03-21T03:20:02.827Z,-0.83
2019-03-21T03:30:03.446Z,-0.85
2019-03-21T03:40:03.419Z,-0.92
2019-03-21T03:50:02.997Z,-1.11
2019-03-21T04:00:03.233Z,-1.14
2019-03-21T04:10:02.897Z,-1.26
2019-03-21T04:20:02.656Z,-1.34
2019-03-21T04:30:03.219Z,-1.39
2019-03-21T04:40:03.497Z,-1.49
2019-03-21T04:50:02.991Z,-2.10
2019-03-21T05:00:03.740Z,-2.13
2019-03-21T05:10:02.944Z,-1.48
2019-03-21T05:30:03.079Z,-0.76
2019-03-21T05:40:02.963Z,0.07
2019-03-21T05:50:02.686Z,0.60
2019-03-21T06:00:03.587Z,1.06
2019-03-21T06:10:02.574Z,1.51
2019-03-21T06:20:03.985Z,1.99
2019-03-21T06:30:02.724Z,2.23
2019-03-21T06:40:02.879Z,2.50
2019-03-21T06:50:02.655Z,2.98
2019-03-21T07:00:03.390Z,3.37
2019-03-21T07:10:02.465Z,3.80
2019-03-21T07:20:02.439Z,4.00
2019-03-21T07:30:03.430Z,4.50
2019-03-21T07:40:03.151Z,4.77
2019-03-21T07:50:02.581Z,5.50
2019-03-21T08:00:03.267Z,5.55
2019-03-21T08:10:02.369Z,6.51
2019-03-21T08:20:02.532Z,6.74
2019-03-21T08:30:03.099Z,6.61
2019-03-21T08:40:03.286Z,7.11
2019-03-21T08:50:02.407Z,7.95
2019-03-21T09:00:03.020Z,7.76
2019-03-21T09:10:02.236Z,7.92
2019-03-21T09:20:02.993Z,7.79
2019-03-21T09:30:08.903Z,8.73
2019-03-21T09:40:02.581Z,8.89
2019-03-21T09:50:03.106Z,9.06
2019-03-21T10:00:02.757Z,8.84
2019-03-21T10:10:02.755Z,8.84
2019-03-21T10:20:03.085Z,9.56
2019-03-21T10:30:02.655Z,9.85
2019-03-21T10:40:02.981Z,10.42
2019-03-21T10:50:02.613Z,10.21
2019-03-21T11:00:03.344Z,9.63
2019-03-21T11:10:02.421Z,11.09
2019-03-21T11:20:02.731Z,10.50
2019-03-21T11:30:03.376Z,10.63
2019-03-21T11:40:02.784Z,11.03
2019-03-21T11:50:02.224Z,10.86
2019-03-21T12:00:03.090Z,11.03
2019-03-21T12:10:02.430Z,11.29
2019-03-21T12:20:02.363Z,11.35
2019-03-21T12:30:03.597Z,11.96
2019-03-21T12:40:02.981Z,12.01
2019-03-21T12:50:02.482Z,12.05
2019-03-21T13:00:03.911Z,12.00
2019-03-21T13:10:02.677Z,12.19
2019-03-21T13:20:03.028Z,12.06
2019-03-21T13:30:03.661Z,12.02
2019-03-21T13:40:02.688Z,12.28
2019-03-21T13:50:03.372Z,12.28
2019-03-21T14:00:03.697Z,12.17
2019-03-21T14:10:02.742Z,12.26
2019-03-21T14:20:02.820Z,12.83
2019-03-21T14:30:03.313Z,12.46
2019-03-21T14:40:02.653Z,12.71
2019-03-21T14:50:02.537Z,12.59
2019-03-21T15:00:03.523Z,12.56
2019-03-21T15:10:02.930Z,12.20
2019-03-21T15:20:02.949Z,12.52
2019-03-21T15:30:03.302Z,12.38
2019-03-21T15:40:03.181Z,12.59
2019-03-21T15:50:02.840Z,12.36
2019-03-21T16:00:03.569Z,12.35
2019-03-21T16:10:02.126Z,12.15
2019-03-21T16:20:03.267Z,12.03
2019-03-21T16:30:03.824Z,11.78
2019-03-21T16:40:02.140Z,11.62
2019-03-21T16:50:03.068Z,11.22
2019-03-21T17:00:02.943Z,10.88
2019-03-21T17:10:02.800Z,10.66
2019-03-21T17:20:03.795Z,10.22
2019-03-21T17:30:03.192Z,9.79
2019-03-21T17:40:02.124Z,9.53
2019-03-21T17:50:02.962Z,9.11
2019-03-21T18:00:02.767Z,8.64
2019-03-21T18:10:02.555Z,8.57
2019-03-21T18:20:02.559Z,8.71
2019-03-21T18:30:03.394Z,8.20
2019-03-21T18:40:02.961Z,8.14
2019-03-21T18:50:03.076Z,7.96
2019-03-21T19:00:03.158Z,7.37
2019-03-21T19:10:02.141Z,7.40
2019-03-21T19:20:02.539Z,7.27
2019-03-21T19:30:05.666Z,7.03
2019-03-21T19:40:03.357Z,7.23
2019-03-21T19:50:02.241Z,7.12
2019-03-21T20:00:04.274Z,6.78
2019-03-21T20:10:07.870Z,6.18
2019-03-21T20:20:02.892Z,5.97
2019-03-21T20:30:03.098Z,5.49
2019-03-21T20:40:03.619Z,6.12
2019-03-21T20:50:02.551Z,5.99
2019-03-21T21:00:03.179Z,5.93
2019-03-21T21:10:07.680Z,5.80
2019-03-21T21:20:02.701Z,5.47
2019-03-21T21:30:03.565Z,5.22
2019-03-21T21:40:02.317Z,4.85
2019-03-21T21:50:02.618Z,3.58
2019-03-21T22:00:03.482Z,2.92
2019-03-21T22:10:02.699Z,3.76
2019-03-21T22:20:02.704Z,3.22
2019-03-21T22:30:04.382Z,4.10
2019-03-21T22:40:02.534Z,4.17
2019-03-21T22:50:03.042Z,3.96
2019-03-21T23:00:02.868Z,2.92
2019-03-21T23:10:02.626Z,2.50
2019-03-21T23:20:02.633Z,2.38
2019-03-21T23:30:03.170Z,2.42
2019-03-21T23:40:02.150Z,2.66
2019-03-21T23:50:03.210Z,2.37
